createdAt,value
2023-02-19T00:00:18.487Z,4.55
2023-02-19T00:02:47.952Z,4.40
2023-02-19T00:05:14.674Z,4.57
2023-02-19T00:07:41.266Z,4.28
2023-02-19T00:10:08.171Z,5.00
2023-02-19T00:12:34.811Z,4.57
2023-02-19T00:15:01.385Z,5.00
2023-02-19T00:17:31.294Z,6.05
2023-02-19T00:19:58.146Z,5.65
2023-02-19T00:22:24.890Z,5.88
2023-02-19T00:24:51.480Z,6.22
2023-02-19T00:27:18.165Z,6.03
2023-02-19T00:29:44.822Z,5.78
2023-02-19T00:32:11.501Z,5.43
2023-02-19T00:34:39.494Z,5.45
2023-02-19T00:37:06.189Z,5.25
2023-02-19T00:39:32.993Z,5.28
2023-02-19T00:41:59.668Z,4.85
2023-02-19T00:44:26.419Z,4.90
2023-02-19T00:46:52.988Z,5.35
2023-02-19T00:49:22.385Z,5.72
2023-02-19T00:51:52.108Z,5.32
2023-02-19T00:54:19.489Z,5.28
2023-02-19T00:56:46.148Z,4.93
2023-02-19T00:59:13.002Z,5.50
2023-02-19T01:01:39.858Z,5.22
2023-02-19T01:04:07.105Z,5.63
2023-02-19T01:06:33.817Z,5.60
2023-02-19T01:09:02.437Z,5.40
2023-02-19T01:11:29.169Z,4.70
2023-02-19T01:13:57.587Z,4.25
2023-02-19T01:16:24.428Z,4.28
2023-02-19T01:18:51.407Z,4.68
2023-02-19T01:21:19.992Z,3.97
2023-02-19T01:23:47.237Z,3.67
2023-02-19T01:26:17.752Z,4.18
2023-02-19T01:28:45.370Z,3.78
2023-02-19T01:31:14.187Z,3.85
2023-02-19T01:33:44.733Z,3.83
2023-02-19T01:36:11.338Z,3.60
2023-02-19T01:38:38.010Z,3.60
2023-02-19T01:41:06.996Z,3.72
2023-02-19T01:43:55.236Z,3.67
2023-02-19T01:46:25.197Z,3.83
2023-02-19T01:48:52.807Z,3.70
2023-02-19T01:51:21.133Z,4.40
2023-02-19T01:53:53.832Z,3.60
2023-02-19T01:56:22.551Z,3.90
2023-02-19T01:58:50.803Z,4.50
2023-02-19T02:01:17.419Z,3.97
2023-02-19T02:03:47.260Z,4.40
2023-02-19T02:06:19.983Z,3.83
2023-02-19T02:08:47.199Z,4.22
2023-02-19T02:11:14.107Z,4.22
2023-02-19T02:13:41.374Z,4.40
2023-02-19T02:16:27.133Z,4.32
2023-02-19T02:19:01.749Z,3.53
2023-02-19T02:21:40.606Z,3.58
2023-02-19T02:24:24.853Z,4.00
2023-02-19T02:27:10.902Z,4.72
2023-02-19T02:30:10.607Z,3.80
2023-02-19T02:32:43.136Z,3.70
2023-02-19T02:35:13.309Z,4.10
2023-02-19T02:37:43.330Z,4.38
2023-02-19T02:40:12.022Z,4.63
2023-02-19T02:42:40.102Z,4.38
2023-02-19T02:45:25.310Z,4.63
2023-02-19T02:47:56.548Z,4.63
2023-02-19T02:50:27.346Z,4.65
2023-02-19T02:52:59.020Z,4.38
2023-02-19T02:55:29.417Z,4.80
2023-02-19T02:57:56.503Z,5.03
2023-02-19T03:00:27.479Z,4.18
2023-02-19T03:02:55.794Z,4.50
2023-02-19T03:05:24.971Z,4.82
2023-02-19T03:07:56.351Z,4.82
2023-02-19T03:10:28.733Z,4.65
2023-02-19T03:12:58.065Z,5.30
2023-02-19T03:15:31.263Z,4.97
2023-02-19T03:18:01.856Z,5.35
2023-02-19T03:20:31.213Z,5.70
2023-02-19T03:23:00.988Z,5.35
2023-02-19T03:25:31.617Z,6.05
2023-02-19T03:28:01.308Z,5.28
2023-02-19T03:30:33.527Z,4.90
2023-02-19T03:33:04.789Z,6.35
2023-02-19T03:35:34.774Z,4.90
2023-02-19T03:38:08.756Z,5.13
2023-02-19T03:40:41.453Z,3.80
2023-02-19T03:43:17.082Z,3.03
2023-02-19T03:45:52.064Z,3.72
2023-02-19T03:48:27.375Z,4.30
2023-02-19T03:51:03.258Z,4.40
2023-02-19T03:53:34.644Z,3.88
2023-02-19T03:56:09.938Z,4.22
2023-02-19T03:58:44.632Z,4.40
2023-02-19T04:01:17.130Z,4.43
2023-02-19T04:03:48.907Z,4.03
2023-02-19T04:06:22.303Z,3.58
2023-02-19T04:11:21.149Z,3.90
2023-02-19T04:13:54.785Z,4.10
2023-02-19T04:16:27.483Z,3.67
2023-02-19T04:18:59.023Z,3.50
2023-02-19T04:21:28.558Z,3.78
2023-02-19T04:23:59.649Z,3.60
2023-02-19T04:26:26.531Z,3.40
2023-02-19T04:28:54.056Z,3.58
2023-02-19T04:31:21.019Z,3.97
2023-02-19T04:33:49.022Z,3.47
2023-02-19T04:36:15.651Z,3.45
2023-02-19T04:38:42.232Z,3.88
2023-02-19T04:41:09.723Z,3.53
2023-02-19T04:43:36.391Z,4.65
2023-02-19T04:46:03.645Z,4.03
2023-02-19T04:48:30.298Z,3.10
2023-02-19T04:50:58.277Z,3.40
2023-02-19T04:53:24.933Z,3.00
2023-02-19T04:55:51.558Z,3.13
2023-02-19T04:58:18.098Z,2.92
2023-02-19T05:00:44.759Z,2.80
2023-02-19T05:03:11.401Z,3.05
2023-02-19T05:05:38.070Z,3.20
2023-02-19T05:08:06.155Z,3.08
2023-02-19T05:10:32.719Z,3.22
2023-02-19T05:12:59.386Z,2.88
2023-02-19T05:15:25.939Z,2.63
2023-02-19T05:17:52.583Z,2.47
2023-02-19T05:20:19.277Z,2.38
2023-02-19T05:22:45.923Z,2.95
2023-02-19T05:25:14.174Z,2.42
2023-02-19T05:27:40.794Z,3.00
2023-02-19T05:30:08.465Z,2.50
2023-02-19T05:32:35.213Z,2.65
2023-02-19T05:35:02.041Z,2.30
2023-02-19T05:37:28.663Z,2.65
2023-02-19T05:39:55.320Z,2.30
2023-02-19T05:42:23.291Z,2.45
2023-02-19T05:44:49.921Z,2.50
2023-02-19T05:47:16.551Z,2.58
2023-02-19T05:49:43.100Z,2.80
2023-02-19T05:52:09.691Z,3.08
2023-02-19T05:54:36.265Z,2.67
2023-02-19T05:57:02.960Z,3.10
2023-02-19T05:59:30.992Z,3.42
2023-02-19T06:01:57.628Z,3.10
2023-02-19T06:04:24.222Z,3.83
2023-02-19T06:06:50.849Z,3.15
2023-02-19T06:09:17.639Z,3.47
2023-02-19T06:11:44.755Z,3.13
2023-02-19T06:14:12.706Z,2.97
2023-02-19T06:16:41.134Z,3.40
2023-02-19T06:19:07.849Z,2.92
2023-02-19T06:21:34.988Z,2.97
2023-02-19T06:24:05.438Z,3.05
2023-02-19T06:26:32.183Z,3.20
2023-02-19T06:28:58.791Z,3.28
2023-02-19T06:31:25.530Z,3.88
2023-02-19T06:33:53.606Z,4.25
2023-02-19T06:36:22.186Z,2.90
2023-02-19T06:38:49.288Z,2.97
2023-02-19T06:41:16.543Z,3.75
2023-02-19T06:43:43.263Z,3.15
2023-02-19T06:46:12.389Z,3.40
2023-02-19T06:48:40.760Z,3.47
2023-02-19T06:51:11.788Z,3.55
2023-02-19T06:53:38.693Z,3.80
2023-02-19T06:56:07.205Z,3.75
2023-02-19T06:58:34.202Z,3.47
2023-02-19T07:01:01.313Z,3.83
2023-02-19T07:03:28.384Z,3.78
2023-02-19T07:05:54.967Z,4.05
2023-02-19T07:08:22.946Z,2.95
2023-02-19T07:10:54.531Z,4.18
2023-02-19T07:13:21.277Z,3.45
2023-02-19T07:15:47.916Z,3.63
2023-02-19T07:18:14.570Z,3.67
2023-02-19T07:20:41.193Z,3.92
2023-02-19T07:23:07.882Z,3.45
2023-02-19T07:25:37.753Z,3.80
2023-02-19T07:28:04.939Z,3.40
2023-02-19T07:30:31.598Z,3.20
2023-02-19T07:32:58.370Z,3.80
2023-02-19T07:35:25.050Z,3.50
2023-02-19T07:37:51.702Z,3.03
2023-02-19T07:40:18.539Z,3.45
2023-02-19T07:42:46.534Z,3.17
2023-02-19T07:45:13.418Z,2.90
2023-02-19T07:47:40.205Z,2.67
2023-02-19T07:50:07.859Z,2.58
2023-02-19T07:52:34.578Z,3.03
2023-02-19T07:55:01.357Z,2.58
2023-02-19T07:57:28.282Z,3.08
2023-02-19T07:59:57.286Z,2.65
2023-02-19T08:02:23.980Z,2.60
2023-02-19T08:04:50.645Z,2.78
2023-02-19T08:07:17.375Z,3.20
2023-02-19T08:09:44.032Z,3.28
2023-02-19T08:12:11.769Z,2.63
2023-02-19T08:14:38.495Z,2.70
2023-02-19T08:17:06.538Z,2.13
2023-02-19T08:19:33.201Z,3.10
2023-02-19T08:21:59.943Z,2.17
2023-02-19T08:24:26.696Z,1.90
2023-02-19T08:26:53.332Z,1.90
2023-02-19T08:29:20.077Z,2.03
2023-02-19T08:31:47.026Z,3.70
2023-02-19T08:34:15.267Z,3.55
2023-02-19T08:36:41.984Z,2.42
2023-02-19T08:39:08.784Z,1.90
2023-02-19T08:41:35.653Z,2.17
2023-02-19T08:44:02.376Z,2.47
2023-02-19T08:46:29.077Z,1.95
2023-02-19T08:48:55.710Z,1.33
2023-02-19T08:51:23.741Z,1.67
2023-02-19T08:53:50.398Z,1.73
2023-02-19T08:56:17.700Z,1.80
2023-02-19T08:58:45.992Z,1.48
2023-02-19T09:01:14.926Z,1.80
2023-02-19T09:03:42.838Z,1.60
2023-02-19T09:06:14.596Z,1.13
2023-02-19T09:08:42.764Z,1.30
2023-02-19T09:11:09.907Z,1.08
2023-02-19T09:13:36.950Z,1.60
2023-02-19T09:16:04.101Z,2.05
2023-02-19T09:18:30.965Z,1.35
2023-02-19T09:21:00.456Z,1.13
2023-02-19T09:23:27.411Z,1.35
2023-02-19T09:25:58.726Z,1.40
2023-02-19T09:28:25.859Z,1.00
2023-02-19T09:30:52.602Z,1.52
2023-02-19T09:33:20.283Z,1.08
2023-02-19T09:35:46.967Z,1.63
2023-02-19T09:38:13.575Z,1.08
2023-02-19T09:40:40.421Z,1.27
2023-02-19T09:43:12.838Z,1.30
2023-02-19T09:45:40.205Z,1.00
2023-02-19T09:48:07.194Z,2.58
2023-02-19T09:50:37.533Z,1.85
2023-02-19T09:53:14.431Z,1.40
2023-02-19T09:55:43.161Z,1.65
2023-02-19T09:58:22.000Z,2.10
2023-02-19T10:00:50.347Z,1.30
2023-02-19T10:03:25.916Z,1.35
2023-02-19T10:05:53.581Z,1.13
2023-02-19T10:08:20.999Z,1.05
2023-02-19T10:10:47.830Z,1.38
2023-02-19T10:13:20.389Z,1.38
2023-02-19T10:15:49.191Z,1.53
2023-02-19T10:18:22.702Z,1.27
2023-02-19T10:20:51.408Z,1.20
2023-02-19T10:23:19.244Z,1.17
2023-02-19T10:25:49.809Z,1.48
2023-02-19T10:28:22.610Z,1.92
2023-02-19T10:30:52.863Z,1.10
2023-02-19T10:33:20.152Z,1.00
2023-02-19T10:35:56.057Z,1.02
2023-02-19T10:38:27.057Z,0.75
2023-02-19T10:41:02.062Z,0.90
2023-02-19T10:43:32.787Z,0.98
2023-02-19T10:46:02.644Z,1.00
2023-02-19T10:48:32.462Z,1.27
2023-02-19T10:51:03.383Z,1.40
2023-02-19T10:53:41.549Z,1.20
2023-02-19T10:56:10.726Z,1.48
2023-02-19T10:58:39.126Z,0.98
2023-02-19T11:01:14.993Z,1.23
2023-02-19T11:03:42.727Z,1.00
2023-02-19T11:06:11.716Z,1.00
2023-02-19T11:09:00.837Z,0.98
2023-02-19T11:11:31.866Z,1.17
2023-02-19T11:14:03.665Z,1.00
2023-02-19T11:16:43.437Z,1.55
2023-02-19T11:19:25.392Z,1.20
2023-02-19T11:21:52.534Z,0.75
2023-02-19T11:24:25.819Z,1.27
2023-02-19T11:26:53.246Z,1.33
2023-02-19T11:29:23.893Z,1.02
2023-02-19T11:31:50.704Z,0.98
2023-02-19T11:34:30.696Z,1.00
2023-02-19T11:37:12.482Z,1.10
2023-02-19T11:39:41.767Z,1.05
2023-02-19T11:42:46.318Z,1.00
2023-02-19T11:45:22.524Z,1.90
2023-02-19T11:48:19.299Z,0.82
2023-02-19T11:50:57.816Z,0.75
2023-02-19T11:53:27.312Z,1.00
2023-02-19T11:56:14.364Z,0.70
2023-02-19T11:59:01.667Z,1.00
2023-02-19T12:01:57.024Z,0.70
2023-02-19T12:04:57.576Z,0.85
2023-02-19T12:07:41.998Z,1.20
2023-02-19T12:10:17.379Z,0.95
2023-02-19T12:12:57.939Z,1.20
2023-02-19T12:15:38.388Z,1.75
2023-02-19T12:18:23.522Z,1.10
2023-02-19T12:21:02.957Z,1.08
2023-02-19T12:23:54.972Z,0.90
2023-02-19T12:26:27.089Z,0.80
2023-02-19T12:29:07.649Z,1.13
2023-02-19T12:31:52.204Z,0.85
2023-02-19T12:34:40.007Z,0.90
2023-02-19T12:37:20.148Z,1.23
2023-02-19T12:39:58.527Z,1.40
2023-02-19T12:42:40.370Z,1.17
2023-02-19T12:45:16.114Z,1.13
2023-02-19T12:47:47.154Z,1.30
2023-02-19T12:50:20.516Z,1.38
2023-02-19T12:52:50.992Z,0.88
2023-02-19T12:55:22.519Z,1.20
2023-02-19T12:57:51.122Z,1.80
2023-02-19T13:00:30.508Z,1.70
2023-02-19T13:03:03.020Z,0.88
2023-02-19T13:05:42.129Z,1.03
2023-02-19T13:08:15.664Z,0.50
2023-02-19T13:10:46.081Z,0.65
2023-02-19T13:13:20.475Z,0.80
2023-02-19T13:15:52.290Z,0.95
2023-02-19T13:18:22.888Z,1.08
2023-02-19T13:20:51.949Z,0.90
2023-02-19T13:23:23.622Z,0.70
2023-02-19T13:26:09.010Z,0.90
2023-02-19T13:28:50.022Z,0.60
2023-02-19T13:31:33.853Z,0.98
2023-02-19T13:34:11.107Z,1.00
2023-02-19T13:36:40.530Z,0.57
2023-02-19T13:39:07.953Z,0.82
2023-02-19T13:41:39.914Z,0.70
2023-02-19T13:44:15.490Z,0.82
2023-02-19T13:46:44.218Z,0.52
2023-02-19T13:49:48.530Z,0.90
2023-02-19T13:55:44.571Z,1.20
2023-02-19T13:58:54.279Z,0.90
2023-02-19T14:02:04.311Z,0.73
2023-02-19T14:04:45.268Z,0.77
2023-02-19T14:07:49.589Z,1.02
2023-02-19T14:12:57.473Z,0.70
2023-02-19T14:15:43.915Z,0.85
2023-02-19T14:18:40.602Z,1.33
2023-02-19T14:21:16.149Z,1.77
2023-02-19T14:23:43.538Z,3.50
2023-02-19T14:26:10.601Z,1.35
2023-02-19T14:28:43.360Z,2.20
2023-02-19T14:31:18.414Z,2.80
2023-02-19T14:33:48.253Z,2.00
2023-02-19T14:36:27.247Z,3.10
2023-02-19T14:38:56.575Z,2.08
2023-02-19T14:41:24.319Z,0.50
2023-02-19T14:43:54.059Z,1.25
2023-02-19T14:46:29.522Z,1.33
2023-02-19T14:49:02.007Z,1.20
2023-02-19T14:51:33.425Z,1.05
2023-02-19T14:54:05.051Z,0.90
2023-02-19T14:56:34.591Z,0.70
2023-02-19T14:59:20.622Z,1.40
2023-02-19T15:01:54.803Z,0.88
2023-02-19T15:04:22.664Z,1.02
2023-02-19T15:06:51.631Z,1.20
2023-02-19T15:09:19.202Z,1.10
2023-02-19T15:11:46.144Z,1.17
2023-02-19T15:14:19.925Z,1.00
2023-02-19T15:16:47.595Z,1.20
2023-02-19T15:19:17.108Z,1.00
2023-02-19T15:21:46.750Z,0.70
2023-02-19T15:24:17.220Z,0.88
2023-02-19T15:26:48.037Z,1.15
2023-02-19T15:29:17.332Z,1.00
2023-02-19T15:31:48.459Z,1.30
2023-02-19T15:34:17.212Z,1.30
2023-02-19T15:36:44.044Z,1.60
2023-02-19T15:39:19.924Z,1.00
2023-02-19T15:41:53.040Z,1.55
2023-02-19T15:44:39.510Z,1.05
2023-02-19T15:47:13.756Z,1.30
2023-02-19T15:49:46.842Z,1.20
2023-02-19T15:52:33.647Z,1.42
2023-02-19T15:55:11.535Z,1.13
2023-02-19T15:57:44.877Z,1.25
2023-02-19T16:00:16.612Z,1.35
2023-02-19T16:02:43.845Z,1.30
2023-02-19T16:05:15.256Z,0.80
2023-02-19T16:07:41.942Z,0.90
2023-02-19T16:10:20.557Z,0.90
2023-02-19T16:12:57.750Z,1.02
2023-02-19T16:15:25.195Z,1.40
2023-02-19T16:17:52.579Z,2.15
2023-02-19T16:20:22.467Z,1.50
2023-02-19T16:22:50.398Z,2.35
2023-02-19T16:25:32.796Z,2.00
2023-02-19T16:27:59.618Z,1.98
2023-02-19T16:30:32.192Z,1.88
2023-02-19T16:33:35.497Z,1.92
2023-02-19T16:36:36.326Z,2.10
2023-02-19T16:39:20.334Z,2.05
2023-02-19T16:42:18.531Z,1.58
2023-02-19T16:44:48.994Z,1.67
2023-02-19T16:47:24.011Z,1.80
2023-02-19T16:49:51.033Z,2.05
2023-02-19T16:52:17.773Z,1.48
2023-02-19T16:54:44.417Z,1.35
2023-02-19T16:57:11.341Z,2.13
2023-02-19T16:59:39.420Z,2.20
2023-02-19T17:02:07.726Z,1.88
2023-02-19T17:04:34.577Z,1.63
2023-02-19T17:07:01.949Z,2.15
2023-02-19T17:09:28.974Z,2.25
2023-02-19T17:11:55.631Z,2.33
2023-02-19T17:14:22.252Z,3.17
2023-02-19T17:16:50.354Z,2.90
2023-02-19T17:19:19.014Z,2.97
2023-02-19T17:21:46.839Z,2.90
2023-02-19T17:24:14.248Z,2.80
2023-02-19T17:26:40.866Z,2.67
2023-02-19T17:29:11.972Z,2.95
2023-02-19T17:31:38.655Z,3.10
2023-02-19T17:34:06.720Z,3.30
2023-02-19T17:36:33.361Z,2.80
2023-02-19T17:39:01.902Z,5.00
2023-02-19T17:41:29.441Z,5.50
2023-02-19T17:43:56.244Z,4.35
2023-02-19T17:46:24.745Z,4.53
2023-02-19T17:48:51.977Z,4.90
2023-02-19T17:51:20.398Z,5.38
2023-02-19T17:53:47.220Z,5.80
2023-02-19T17:56:20.138Z,4.72
2023-02-19T17:58:47.199Z,4.93
2023-02-19T18:01:14.236Z,4.47
2023-02-19T18:03:41.129Z,4.45
2023-02-19T18:06:08.104Z,4.05
2023-02-19T18:08:36.147Z,3.97
2023-02-19T18:11:03.163Z,3.65
2023-02-19T18:13:30.176Z,3.40
2023-02-19T18:15:56.950Z,3.35
2023-02-19T18:18:23.577Z,6.20
2023-02-19T18:20:50.212Z,13.75
2023-02-19T18:23:16.996Z,24.40
2023-02-19T18:25:45.069Z,17.40
2023-02-19T18:28:11.632Z,23.98
2023-02-19T18:30:38.313Z,17.33
2023-02-19T18:33:04.916Z,21.65
2023-02-19T18:35:33.156Z,16.92
2023-02-19T18:38:00.722Z,13.82
2023-02-19T18:40:27.577Z,12.25
2023-02-19T18:42:55.760Z,11.02
2023-02-19T18:45:22.546Z,10.00
2023-02-19T18:47:50.156Z,8.80
2023-02-19T18:50:18.488Z,5.65
2023-02-19T18:52:45.470Z,10.30
2023-02-19T18:55:12.286Z,13.45
2023-02-19T18:57:38.948Z,15.55
2023-02-19T19:00:08.429Z,15.95
2023-02-19T19:02:48.293Z,13.40
2023-02-19T19:05:17.520Z,10.43
2023-02-19T19:07:44.364Z,7.57
2023-02-19T19:10:11.110Z,5.65
2023-02-19T19:12:37.750Z,4.47
2023-02-19T19:15:05.142Z,4.05
2023-02-19T19:17:33.286Z,4.60
2023-02-19T19:19:59.941Z,6.43
2023-02-19T19:22:26.663Z,8.38
2023-02-19T19:24:53.445Z,10.32
2023-02-19T19:27:20.900Z,10.20
2023-02-19T19:29:47.886Z,9.57
2023-02-19T19:32:14.948Z,5.53
2023-02-19T19:34:43.135Z,5.18
2023-02-19T19:37:09.769Z,3.92
2023-02-19T19:39:36.492Z,4.03
2023-02-19T19:42:03.348Z,5.65
2023-02-19T19:44:30.101Z,5.43
2023-02-19T19:46:57.467Z,5.82
2023-02-19T19:49:24.088Z,4.47
2023-02-19T19:51:52.281Z,3.88
2023-02-19T19:54:19.138Z,3.95
2023-02-19T19:56:47.531Z,4.10
2023-02-19T19:59:16.106Z,4.07
2023-02-19T20:01:47.860Z,3.20
2023-02-19T20:04:14.429Z,3.10
2023-02-19T20:06:41.271Z,2.90
2023-02-19T20:09:09.334Z,2.60
2023-02-19T20:11:36.029Z,2.70
2023-02-19T20:14:02.726Z,2.45
2023-02-19T20:16:29.301Z,2.58
2023-02-19T20:18:55.889Z,2.45
2023-02-19T20:21:22.537Z,2.72
2023-02-19T20:23:49.193Z,3.00
2023-02-19T20:26:23.458Z,3.38
2023-02-19T20:28:50.196Z,3.50
2023-02-19T20:31:17.474Z,2.80
2023-02-19T20:33:44.149Z,3.30
2023-02-19T20:36:11.219Z,2.92
2023-02-19T20:38:37.843Z,3.28
2023-02-19T20:41:04.901Z,3.13
2023-02-19T20:43:32.890Z,3.03
2023-02-19T20:45:59.649Z,2.92
2023-02-19T20:48:26.207Z,3.15
2023-02-19T20:50:52.843Z,3.45
2023-02-19T20:53:19.524Z,3.65
2023-02-19T20:55:46.129Z,3.45
2023-02-19T20:58:12.723Z,3.47
2023-02-19T21:00:40.697Z,3.80
2023-02-19T21:03:07.632Z,3.50
2023-02-19T21:05:34.349Z,3.60
2023-02-19T21:08:01.072Z,2.97
2023-02-19T21:10:27.832Z,3.05
2023-02-19T21:12:54.369Z,2.83
2023-02-19T21:15:21.205Z,3.00
2023-02-19T21:17:49.327Z,3.45
2023-02-19T21:20:16.879Z,3.35
2023-02-19T21:22:43.837Z,2.63
2023-02-19T21:25:10.768Z,3.10
2023-02-19T21:27:38.612Z,2.85
2023-02-19T21:30:06.721Z,2.50
2023-02-19T21:32:33.445Z,3.00
2023-02-19T21:35:01.448Z,3.38
2023-02-19T21:37:28.112Z,3.78
2023-02-19T21:39:54.729Z,4.25
2023-02-19T21:42:21.708Z,4.07
2023-02-19T21:44:48.489Z,5.65
2023-02-19T21:47:15.140Z,4.43
2023-02-19T21:49:42.583Z,6.43
2023-02-19T21:52:10.582Z,4.50
2023-02-19T21:54:37.252Z,2.95
2023-02-19T21:57:04.136Z,2.10
2023-02-19T21:59:30.792Z,2.15
2023-02-19T22:01:57.417Z,1.90
2023-02-19T22:04:24.020Z,2.58
2023-02-19T22:06:54.221Z,2.70
2023-02-19T22:09:22.582Z,2.08
2023-02-19T22:11:49.265Z,1.95
2023-02-19T22:14:15.839Z,2.00
2023-02-19T22:16:42.562Z,1.80
2023-02-19T22:19:10.141Z,1.90
2023-02-19T22:21:41.906Z,2.25
2023-02-19T22:24:14.942Z,1.80
2023-02-19T22:26:42.976Z,1.88
2023-02-19T22:29:10.920Z,1.92
2023-02-19T22:31:37.666Z,2.20
2023-02-19T22:34:04.901Z,1.60
2023-02-19T22:36:33.243Z,3.13
2023-02-19T22:39:00.679Z,1.83
2023-02-19T22:41:27.412Z,2.08
2023-02-19T22:43:56.996Z,2.25
2023-02-19T22:46:25.748Z,2.63
2023-02-19T22:48:52.512Z,3.30
2023-02-19T22:51:22.463Z,2.65
2023-02-19T22:53:51.262Z,2.53
2023-02-19T22:56:19.632Z,2.40
2023-02-19T22:58:46.762Z,2.25
2023-02-19T23:01:15.471Z,2.75
2023-02-19T23:03:46.957Z,2.78
2023-02-19T23:06:14.293Z,2.03
2023-02-19T23:08:41.330Z,2.40
2023-02-19T23:11:08.432Z,2.20
2023-02-19T23:13:35.074Z,2.20
2023-02-19T23:16:01.737Z,2.42
2023-02-19T23:18:29.665Z,2.75
2023-02-19T23:20:56.288Z,2.33
2023-02-19T23:23:22.971Z,2.50
2023-02-19T23:25:49.643Z,2.25
2023-02-19T23:28:16.288Z,2.95
2023-02-19T23:30:43.066Z,2.72
2023-02-19T23:33:09.770Z,2.65
2023-02-19T23:35:37.729Z,3.33
2023-02-19T23:38:04.481Z,3.13
2023-02-19T23:40:31.080Z,3.58
2023-02-19T23:42:57.729Z,2.92
2023-02-19T23:45:24.406Z,3.70
2023-02-19T23:47:51.073Z,5.15
2023-02-19T23:50:18.019Z,4.25
2023-02-19T23:52:46.006Z,3.85
2023-02-19T23:55:12.687Z,3.40
2023-02-19T23:57:39.345Z,3.13
